createdAt,value
2018-11-21T00:00:17.402Z,1.00
2018-11-21T00:02:45.962Z,0.98
2018-11-21T00:05:14.516Z,0.96
2018-11-21T00:07:45.016Z,1.02
2018-11-21T00:10:13.954Z,1.05
2018-11-21T00:12:48.472Z,1.09
2018-11-21T00:15:17.058Z,1.04
2018-11-21T00:17:45.551Z,0.98
2018-11-21T00:20:14.140Z,1.03
2018-11-21T00:22:42.616Z,1.09
2018-11-21T00:25:11.107Z,1.08
2018-11-21T00:27:39.798Z,1.07
2018-11-21T00:30:15.669Z,1.05
2018-11-21T00:32:44.214Z,1.03
2018-11-21T00:35:12.722Z,1.04
2018-11-21T00:37:41.198Z,1.07
2018-11-21T00:40:14.182Z,1.10
2018-11-21T00:42:46.707Z,1.10
2018-11-21T00:45:11.593Z,1.07
2018-11-21T00:47:40.340Z,1.05
2018-11-21T00:50:08.902Z,1.03
2018-11-21T00:52:37.671Z,1.06
2018-11-21T00:55:06.959Z,1.10
2018-11-21T00:57:35.585Z,1.14
2018-11-21T01:00:04.310Z,1.18
2018-11-21T01:02:32.867Z,1.18
2018-11-21T01:05:01.423Z,1.20
2018-11-21T01:07:29.905Z,1.17
2018-11-21T01:09:58.384Z,1.18
2018-11-21T01:12:26.910Z,1.15
2018-11-21T01:14:55.443Z,1.17
2018-11-21T01:17:23.934Z,1.18
2018-11-21T01:19:52.473Z,1.19
2018-11-21T01:22:20.948Z,1.16
2018-11-21T01:24:49.439Z,1.20
2018-11-21T01:27:17.968Z,1.21
2018-11-21T01:29:46.566Z,1.16
2018-11-21T01:32:15.044Z,1.17
2018-11-21T01:34:43.565Z,1.16
2018-11-21T01:37:12.034Z,1.15
2018-11-21T01:39:40.546Z,1.13
2018-11-21T01:42:09.108Z,1.18
2018-11-21T01:44:37.601Z,1.18
2018-11-21T01:47:06.180Z,1.11
2018-11-21T01:49:34.743Z,1.14
2018-11-21T01:52:03.231Z,1.16
2018-11-21T01:54:31.719Z,1.14
2018-11-21T01:57:00.250Z,1.09
2018-11-21T01:59:28.775Z,1.06
2018-11-21T02:01:57.259Z,1.09
2018-11-21T02:04:25.793Z,1.12
2018-11-21T02:06:54.358Z,1.12
2018-11-21T02:09:22.842Z,1.14
2018-11-21T02:11:51.469Z,1.17
2018-11-21T02:14:19.959Z,1.18
2018-11-21T02:16:48.443Z,1.16
2018-11-21T02:19:17.026Z,1.11
2018-11-21T02:21:45.507Z,1.10
2018-11-21T02:24:14.326Z,1.14
2018-11-21T02:26:42.864Z,1.11
2018-11-21T02:29:11.351Z,1.10
2018-11-21T02:31:39.852Z,1.17
2018-11-21T02:34:08.412Z,1.18
2018-11-21T02:36:36.896Z,1.12
2018-11-21T02:39:08.695Z,1.10
2018-11-21T02:41:37.455Z,1.08
2018-11-21T02:44:06.258Z,1.10
2018-11-21T02:46:34.833Z,1.15
2018-11-21T02:49:03.362Z,1.10
2018-11-21T02:51:31.856Z,1.12
2018-11-21T02:54:00.395Z,1.09
2018-11-21T02:57:31.941Z,1.09
2018-11-21T03:00:06.981Z,1.09
2018-11-21T03:02:35.494Z,1.03
2018-11-21T03:05:04.028Z,1.03
2018-11-21T03:07:32.530Z,1.00
2018-11-21T03:10:01.016Z,1.01
2018-11-21T03:12:31.540Z,1.01
2018-11-21T03:15:00.041Z,1.02
2018-11-21T03:17:28.523Z,0.95
2018-11-21T03:19:57.032Z,0.99
2018-11-21T03:22:25.529Z,0.98
2018-11-21T03:24:54.034Z,0.95
2018-11-21T03:27:22.574Z,0.91
2018-11-21T03:29:51.164Z,0.92
2018-11-21T03:32:19.647Z,0.94
2018-11-21T03:34:48.171Z,0.93
2018-11-21T03:37:16.642Z,0.92
2018-11-21T03:39:45.149Z,0.91
2018-11-21T03:42:13.719Z,0.85
2018-11-21T03:44:42.234Z,0.84
2018-11-21T03:47:12.729Z,0.82
2018-11-21T03:49:41.259Z,0.79
2018-11-21T03:52:09.748Z,0.71
2018-11-21T03:54:38.256Z,0.64
2018-11-21T03:57:06.832Z,0.66
2018-11-21T03:59:35.349Z,0.62
2018-11-21T04:02:03.862Z,0.66
2018-11-21T04:04:32.410Z,0.68
2018-11-21T04:07:01.053Z,0.65
2018-11-21T04:09:29.531Z,0.68
2018-11-21T04:11:58.060Z,0.73
2018-11-21T04:14:26.547Z,0.77
2018-11-21T04:16:55.028Z,0.76
2018-11-21T04:19:23.563Z,0.76
2018-11-21T04:21:52.165Z,0.75
2018-11-21T04:24:20.721Z,0.78
2018-11-21T04:26:49.355Z,0.79
2018-11-21T04:29:17.869Z,0.83
2018-11-21T04:31:50.416Z,0.86
2018-11-21T04:34:18.935Z,0.87
2018-11-21T04:36:47.419Z,0.86
2018-11-21T04:39:15.901Z,0.87
2018-11-21T04:41:44.449Z,0.89
2018-11-21T04:44:12.986Z,0.91
2018-11-21T04:46:41.464Z,0.90
2018-11-21T04:49:10.025Z,0.91
2018-11-21T04:51:38.515Z,0.88
2018-11-21T04:54:07.001Z,0.87
2018-11-21T04:56:35.560Z,0.82
2018-11-21T04:59:04.097Z,0.83
2018-11-21T05:01:32.590Z,0.89
2018-11-21T05:04:01.231Z,0.86
2018-11-21T05:06:29.730Z,0.87
2018-11-21T05:08:58.266Z,0.84
2018-11-21T05:11:26.741Z,0.84
2018-11-21T05:14:01.342Z,0.85
2018-11-21T05:16:29.818Z,0.87
2018-11-21T05:18:58.389Z,0.88
2018-11-21T05:21:26.897Z,0.90
2018-11-21T05:23:55.470Z,0.89
2018-11-21T05:26:24.119Z,0.86
2018-11-21T05:28:53.303Z,0.87
2018-11-21T05:31:21.785Z,0.89
2018-11-21T05:33:50.310Z,0.83
2018-11-21T05:36:18.796Z,0.82
2018-11-21T05:38:47.276Z,0.83
2018-11-21T05:41:15.793Z,0.81
2018-11-21T05:43:44.297Z,0.78
2018-11-21T05:46:12.788Z,0.79
2018-11-21T05:48:41.301Z,0.75
2018-11-21T05:51:09.794Z,0.81
2018-11-21T05:53:38.326Z,0.81
2018-11-21T05:56:06.842Z,0.85
2018-11-21T05:58:35.388Z,0.88
2018-11-21T06:01:03.832Z,0.90
2018-11-21T06:03:32.408Z,0.91
2018-11-21T06:06:00.990Z,0.89
2018-11-21T06:08:29.539Z,0.89
2018-11-21T06:10:58.055Z,0.94
2018-11-21T06:13:26.565Z,0.98
2018-11-21T06:15:55.134Z,0.97
2018-11-21T06:18:23.709Z,0.95
2018-11-21T06:20:52.198Z,0.94
2018-11-21T06:23:20.681Z,0.95
2018-11-21T06:25:49.193Z,0.96
2018-11-21T06:28:17.711Z,0.95
2018-11-21T06:30:46.963Z,0.94
2018-11-21T06:33:15.493Z,0.98
2018-11-21T06:35:44.001Z,0.94
2018-11-21T06:38:12.507Z,0.99
2018-11-21T06:40:41.034Z,1.04
2018-11-21T06:43:09.658Z,1.05
2018-11-21T06:45:38.302Z,1.07
2018-11-21T06:48:06.842Z,1.05
2018-11-21T06:50:35.532Z,1.09
2018-11-21T06:53:04.028Z,1.06
2018-11-21T06:55:32.659Z,1.06
2018-11-21T06:58:01.199Z,1.08
2018-11-21T07:00:29.708Z,1.06
2018-11-21T07:02:58.346Z,1.05
2018-11-21T07:05:26.847Z,1.03
2018-11-21T07:07:55.465Z,1.10
2018-11-21T07:10:24.066Z,1.12
2018-11-21T07:12:52.732Z,1.16
2018-11-21T07:15:21.237Z,1.18
2018-11-21T07:17:49.808Z,1.18
2018-11-21T07:20:18.330Z,1.17
2018-11-21T07:22:46.907Z,1.20
2018-11-21T07:25:20.321Z,1.23
2018-11-21T07:27:48.827Z,1.31
2018-11-21T07:30:17.938Z,1.40
2018-11-21T07:32:46.783Z,1.41
2018-11-21T07:35:18.031Z,1.35
2018-11-21T07:37:44.633Z,1.41
2018-11-21T07:40:14.522Z,1.42
2018-11-21T07:42:42.987Z,1.38
2018-11-21T07:45:12.996Z,1.40
2018-11-21T07:47:42.204Z,1.43
2018-11-21T07:50:13.667Z,1.45
2018-11-21T07:52:42.409Z,1.47
2018-11-21T07:55:11.641Z,1.45
2018-11-21T07:57:41.766Z,1.48
2018-11-21T08:00:44.763Z,1.46
2018-11-21T08:03:14.803Z,1.47
2018-11-21T08:05:44.567Z,1.49
2018-11-21T08:08:35.255Z,1.50
2018-11-21T08:11:41.525Z,1.48
2018-11-21T08:14:33.955Z,1.46
2018-11-21T08:17:36.638Z,1.45
2018-11-21T08:20:27.902Z,1.44
2018-11-21T08:23:16.469Z,1.51
2018-11-21T08:26:04.126Z,1.54
2018-11-21T08:28:32.614Z,1.54
2018-11-21T08:31:01.135Z,1.55
2018-11-21T08:33:34.139Z,1.55
2018-11-21T08:35:59.549Z,1.47
2018-11-21T08:38:28.031Z,1.46
2018-11-21T08:40:56.569Z,1.49
2018-11-21T08:43:25.163Z,1.50
2018-11-21T08:45:53.643Z,1.55
2018-11-21T08:48:22.616Z,1.55
2018-11-21T08:50:51.088Z,1.59
2018-11-21T08:53:19.693Z,1.56
2018-11-21T08:55:48.165Z,1.60
2018-11-21T08:58:16.644Z,1.61
2018-11-21T09:00:45.627Z,1.59
2018-11-21T09:03:14.163Z,1.61
2018-11-21T09:05:42.675Z,1.61
2018-11-21T09:08:11.171Z,1.61
2018-11-21T09:10:39.718Z,1.63
2018-11-21T09:13:08.201Z,1.63
2018-11-21T09:15:36.700Z,1.67
2018-11-21T09:18:05.262Z,1.65
2018-11-21T09:20:33.797Z,1.71
2018-11-21T09:23:02.346Z,1.69
2018-11-21T09:25:30.892Z,1.73
2018-11-21T09:27:59.370Z,1.76
2018-11-21T09:30:27.861Z,1.77
2018-11-21T09:32:57.275Z,1.81
2018-11-21T09:35:25.765Z,1.81
2018-11-21T09:37:54.238Z,1.77
2018-11-21T09:40:23.642Z,1.78
2018-11-21T09:42:53.674Z,1.77
2018-11-21T09:45:23.090Z,1.77
2018-11-21T09:47:51.652Z,1.81
2018-11-21T09:50:30.427Z,1.84
2018-11-21T09:52:58.948Z,1.86
2018-11-21T09:55:27.429Z,1.82
2018-11-21T09:57:55.908Z,1.82
2018-11-21T10:01:01.965Z,1.86
2018-11-21T10:03:32.141Z,1.85
2018-11-21T10:06:06.956Z,1.88
2018-11-21T10:08:45.721Z,1.84
2018-11-21T10:11:14.711Z,1.82
2018-11-21T10:13:43.335Z,1.76
2018-11-21T10:16:11.760Z,1.78
2018-11-21T10:18:41.741Z,1.80
2018-11-21T10:21:12.001Z,1.85
2018-11-21T10:23:40.494Z,1.88
2018-11-21T10:26:09.212Z,1.89
2018-11-21T10:28:38.081Z,1.91
2018-11-21T10:31:06.776Z,1.94
2018-11-21T10:33:35.341Z,1.93
2018-11-21T10:36:03.976Z,2.00
2018-11-21T10:38:32.494Z,2.01
2018-11-21T10:41:01.023Z,2.08
2018-11-21T10:43:29.810Z,2.15
2018-11-21T10:45:58.313Z,2.20
2018-11-21T10:48:28.784Z,2.20
2018-11-21T10:50:57.261Z,2.27
2018-11-21T10:53:25.774Z,2.26
2018-11-21T10:55:54.337Z,2.23
2018-11-21T10:58:22.884Z,2.22
2018-11-21T11:01:09.624Z,2.20
2018-11-21T11:03:43.606Z,2.20
2018-11-21T11:06:34.095Z,2.15
2018-11-21T11:09:20.454Z,2.17
2018-11-21T11:12:04.115Z,2.20
2018-11-21T11:15:09.771Z,2.18
2018-11-21T11:17:59.436Z,2.25
2018-11-21T11:21:01.926Z,2.27
2018-11-21T11:23:49.515Z,2.19
2018-11-21T11:26:39.852Z,2.10
2018-11-21T11:29:26.107Z,2.09
2018-11-21T11:32:12.294Z,2.12
2018-11-21T11:34:58.657Z,2.19
2018-11-21T11:37:52.083Z,2.26
2018-11-21T11:40:38.329Z,2.33
2018-11-21T11:43:44.012Z,2.30
2018-11-21T11:46:49.710Z,2.33
2018-11-21T11:49:36.550Z,2.36
2018-11-21T11:52:33.076Z,2.30
2018-11-21T11:55:29.885Z,2.20
2018-11-21T11:58:16.523Z,2.15
2018-11-21T12:01:22.325Z,2.14
2018-11-21T12:04:28.311Z,2.10
2018-11-21T12:07:24.899Z,2.06
2018-11-21T12:10:18.204Z,2.07
2018-11-21T12:13:07.052Z,2.09
2018-11-21T12:15:44.595Z,2.12
2018-11-21T12:18:31.198Z,2.16
2018-11-21T12:21:16.957Z,2.14
2018-11-21T12:24:16.594Z,2.07
2018-11-21T12:26:55.580Z,2.04
2018-11-21T12:29:43.172Z,2.08
2018-11-21T12:32:29.215Z,2.11
2018-11-21T12:35:24.569Z,2.08
2018-11-21T12:38:03.416Z,1.98
2018-11-21T12:41:06.078Z,1.99
2018-11-21T12:43:55.763Z,1.93
2018-11-21T12:46:41.927Z,1.94
2018-11-21T12:49:38.504Z,1.89
2018-11-21T12:52:26.082Z,1.81
2018-11-21T12:55:14.734Z,1.75
2018-11-21T12:58:11.946Z,1.72
2018-11-21T13:01:17.625Z,1.67
2018-11-21T13:04:10.982Z,1.65
2018-11-21T13:06:48.698Z,1.65
2018-11-21T13:09:36.278Z,1.59
2018-11-21T13:12:17.452Z,1.57
2018-11-21T13:15:07.777Z,1.55
2018-11-21T13:17:49.974Z,1.55
2018-11-21T13:20:26.270Z,1.48
2018-11-21T13:23:22.955Z,1.43
2018-11-21T13:26:09.124Z,1.38
2018-11-21T13:28:45.458Z,1.39
2018-11-21T13:31:27.978Z,1.40
2018-11-21T13:34:21.843Z,1.39
2018-11-21T13:37:09.427Z,1.44
2018-11-21T13:40:02.674Z,1.46
2018-11-21T13:43:03.633Z,1.51
2018-11-21T13:45:50.165Z,1.56
2018-11-21T13:48:50.120Z,1.58
2018-11-21T13:51:44.041Z,1.56
2018-11-21T13:54:30.174Z,1.60
2018-11-21T13:56:58.712Z,1.59
2018-11-21T13:59:27.214Z,1.57
2018-11-21T14:01:55.715Z,1.56
2018-11-21T14:04:24.250Z,1.58
2018-11-21T14:06:52.783Z,1.56
2018-11-21T14:09:22.232Z,1.58
2018-11-21T14:11:51.260Z,1.57
2018-11-21T14:14:20.013Z,1.57
2018-11-21T14:16:48.518Z,1.56
2018-11-21T14:19:17.113Z,1.59
2018-11-21T14:21:45.600Z,1.61
2018-11-21T14:24:14.100Z,1.56
2018-11-21T14:26:42.668Z,1.56
2018-11-21T14:29:11.410Z,1.56
2018-11-21T14:31:39.977Z,1.57
2018-11-21T14:34:08.449Z,1.55
2018-11-21T14:36:36.959Z,1.55
2018-11-21T14:39:09.558Z,1.58
2018-11-21T14:41:38.621Z,1.59
2018-11-21T14:44:07.605Z,1.60
2018-11-21T14:46:36.122Z,1.61
2018-11-21T14:49:04.738Z,1.66
2018-11-21T14:51:33.261Z,1.65
2018-11-21T14:54:01.743Z,1.61
2018-11-21T14:56:30.260Z,1.66
2018-11-21T14:58:58.750Z,1.67
2018-11-21T15:01:27.229Z,1.67
2018-11-21T15:03:55.766Z,1.72
2018-11-21T15:06:24.282Z,1.74
2018-11-21T15:08:52.764Z,1.75
2018-11-21T15:11:21.304Z,1.77
2018-11-21T15:13:49.795Z,1.76
2018-11-21T15:16:18.310Z,1.72
2018-11-21T15:18:46.838Z,1.74
2018-11-21T15:21:16.682Z,1.72
2018-11-21T15:23:43.880Z,1.74
2018-11-21T15:26:12.481Z,1.74
2018-11-21T15:28:40.965Z,1.78
2018-11-21T15:31:09.456Z,1.80
2018-11-21T15:33:38.016Z,1.81
2018-11-21T15:36:06.812Z,1.80
2018-11-21T15:38:35.321Z,1.83
2018-11-21T15:41:03.840Z,1.81
2018-11-21T15:43:32.328Z,1.76
2018-11-21T15:46:00.862Z,1.77
2018-11-21T15:48:29.469Z,1.79
2018-11-21T15:50:57.943Z,1.78
2018-11-21T15:53:26.495Z,1.72
2018-11-21T15:55:54.996Z,1.67
2018-11-21T15:58:23.489Z,1.68
2018-11-21T16:00:51.979Z,1.67
2018-11-21T16:03:20.521Z,1.64
2018-11-21T16:05:49.026Z,1.57
2018-11-21T16:08:17.537Z,1.58
2018-11-21T16:10:47.435Z,1.54
2018-11-21T16:13:15.950Z,1.60
2018-11-21T16:15:48.924Z,1.55
2018-11-21T16:18:18.406Z,1.59
2018-11-21T16:20:48.521Z,1.60
2018-11-21T16:23:17.012Z,1.55
2018-11-21T16:25:45.542Z,1.54
2018-11-21T16:28:14.174Z,1.55
2018-11-21T16:30:42.560Z,1.60
2018-11-21T16:33:11.132Z,1.55
2018-11-21T16:35:39.627Z,1.57
2018-11-21T16:38:08.109Z,1.59
2018-11-21T16:40:37.243Z,1.51
2018-11-21T16:43:06.272Z,1.55
2018-11-21T16:45:37.055Z,1.52
2018-11-21T16:48:06.032Z,1.51
2018-11-21T16:50:34.524Z,1.48
2018-11-21T16:53:03.023Z,1.51
2018-11-21T16:55:31.560Z,1.54
2018-11-21T16:58:01.000Z,1.54
2018-11-21T17:00:30.508Z,1.48
2018-11-21T17:02:59.049Z,1.51
2018-11-21T17:05:28.207Z,1.50
2018-11-21T17:07:56.693Z,1.43
2018-11-21T17:10:26.868Z,1.41
2018-11-21T17:12:55.404Z,1.43
2018-11-21T17:15:25.526Z,1.43
2018-11-21T17:17:54.065Z,1.39
2018-11-21T17:20:27.234Z,1.35
2018-11-21T17:22:56.718Z,1.37
2018-11-21T17:25:43.829Z,1.36
2018-11-21T17:28:12.510Z,1.41
2018-11-21T17:30:41.014Z,1.44
2018-11-21T17:33:09.562Z,1.44
2018-11-21T17:35:38.081Z,1.44
2018-11-21T17:38:06.599Z,1.50
2018-11-21T17:40:37.143Z,1.49
2018-11-21T17:43:06.050Z,1.54
2018-11-21T17:45:34.652Z,1.56
2018-11-21T17:48:03.288Z,1.59
2018-11-21T17:50:31.767Z,1.65
2018-11-21T17:53:01.790Z,1.66
2018-11-21T17:55:31.227Z,1.70
2018-11-21T17:57:59.878Z,1.72
2018-11-21T18:00:29.704Z,1.72
2018-11-21T18:02:58.281Z,1.72
2018-11-21T18:05:31.307Z,1.72
2018-11-21T18:07:59.811Z,1.75
2018-11-21T18:10:30.096Z,1.76
2018-11-21T18:12:58.588Z,1.72
2018-11-21T18:15:27.088Z,1.76
2018-11-21T18:17:55.612Z,1.79
2018-11-21T18:20:24.107Z,1.79
2018-11-21T18:22:53.001Z,1.80
2018-11-21T18:25:26.780Z,1.82
2018-11-21T18:27:55.529Z,1.82
2018-11-21T18:30:24.737Z,1.88
2018-11-21T18:32:53.320Z,1.87
2018-11-21T18:35:22.735Z,1.84
2018-11-21T18:37:51.267Z,1.88
2018-11-21T18:40:29.849Z,1.91
2018-11-21T18:42:58.332Z,1.90
2018-11-21T18:45:30.230Z,1.82
2018-11-21T18:47:58.836Z,1.79
2018-11-21T18:50:27.351Z,1.77
2018-11-21T18:52:57.070Z,1.78
2018-11-21T18:55:30.712Z,1.77
2018-11-21T18:58:46.519Z,1.78
2018-11-21T19:01:15.055Z,1.72
2018-11-21T19:03:43.591Z,1.76
2018-11-21T19:06:12.118Z,1.75
2018-11-21T19:08:52.456Z,1.75
2018-11-21T19:11:20.975Z,1.75
2018-11-21T19:13:49.484Z,1.75
2018-11-21T19:16:18.049Z,1.75
2018-11-21T19:18:46.571Z,1.77
2018-11-21T19:21:15.164Z,1.76
2018-11-21T19:23:43.717Z,1.78
2018-11-21T19:26:12.235Z,1.78
2018-11-21T19:28:40.725Z,1.78
2018-11-21T19:31:09.276Z,1.82
2018-11-21T19:33:37.765Z,1.83
2018-11-21T19:36:06.309Z,1.81
2018-11-21T19:38:34.875Z,1.81
2018-11-21T19:41:03.404Z,1.78
2018-11-21T19:43:31.971Z,1.79
2018-11-21T19:46:00.529Z,1.81
2018-11-21T19:48:29.072Z,1.85
2018-11-21T19:50:57.766Z,1.81
2018-11-21T19:53:26.327Z,1.78
2018-11-21T19:55:55.041Z,1.79
2018-11-21T19:58:23.635Z,1.77
2018-11-21T20:00:52.242Z,1.79
2018-11-21T20:03:20.728Z,1.75
2018-11-21T20:05:49.245Z,1.73
2018-11-21T20:08:17.784Z,1.81
2018-11-21T20:10:46.343Z,1.85
2018-11-21T20:13:14.816Z,1.82
2018-11-21T20:15:43.404Z,1.86
2018-11-21T20:18:11.902Z,1.82
2018-11-21T20:20:40.402Z,1.80
2018-11-21T20:23:09.193Z,1.77
2018-11-21T20:25:37.711Z,1.75
2018-11-21T20:28:06.283Z,1.79
2018-11-21T20:30:36.910Z,1.78
2018-11-21T20:33:05.896Z,1.80
2018-11-21T20:35:34.720Z,1.76
2018-11-21T20:38:03.256Z,1.74
2018-11-21T20:40:33.429Z,1.78
2018-11-21T20:43:01.947Z,1.78
2018-11-21T20:45:30.645Z,1.78
2018-11-21T20:48:00.108Z,1.83
2018-11-21T20:50:28.622Z,1.80
2018-11-21T20:52:57.171Z,1.81
2018-11-21T20:55:27.311Z,1.80
2018-11-21T20:57:55.888Z,1.79
2018-11-21T21:00:25.956Z,1.75
